Time;durP1;ratioP1;P1;durP2;ratioP2;P2;SDS_P1;SDS_P2;PMS_P1;PMS_P2;Temp;Humidity;BMP_temperature;BMP_pressure;BME280_temperature;BME280_humidity;BME280_pressure;Samples;Min_cycle;Max_cycle;Signal;HPM_P1;HPM_P2
2022/07/12 00:01:58;;;;;;;32.47;30.58;;;26.20;47.30;;;;;;5035232;28;20029;-83
2022/07/12 00:04:24;;;;;;;30.85;29.13;;;26.00;47.60;;;;;;5035505;28;20026;-83
2022/07/12 00:06:50;;;;;;;30.83;29.30;;;25.70;48.30;;;;;;5034518;28;20379;-82
2022/07/12 00:09:16;;;;;;;32.58;30.77;;;25.50;49.20;;;;;;5031407;28;20068;-83
2022/07/12 00:11:43;;;;;;;31.15;29.55;;;25.40;49.20;;;;;;5034830;28;20026;-83
2022/07/12 00:14:12;;;;;;;29.92;28.40;;;25.50;48.90;;;;;;5035207;28;20030;-83
2022/07/12 00:16:38;;;;;;;31.30;29.25;;;25.50;48.90;;;;;;5014941;28;20025;-83
2022/07/12 00:19:04;;;;;;;29.88;28.27;;;25.40;49.40;;;;;;5014609;28;20059;-83
2022/07/12 00:21:30;;;;;;;29.95;28.45;;;25.30;49.40;;;;;;5030827;28;20057;-83
2022/07/12 00:23:56;;;;;;;29.55;28.05;;;25.40;49.20;;;;;;5034289;28;20021;-83
2022/07/12 00:26:22;;;;;;;29.17;27.77;;;25.50;48.90;;;;;;5034660;28;20051;-82
2022/07/12 00:28:48;;;;;;;29.92;28.33;;;25.50;49.10;;;;;;5035126;28;20059;-83
2022/07/12 00:31:15;;;;;;;27.98;26.27;;;25.50;48.90;;;;;;5027652;28;20045;-83
2022/07/12 00:33:41;;;;;;;28.63;26.92;;;25.40;49.20;;;;;;5016139;28;20029;-82
2022/07/12 00:36:07;;;;;;;28.10;26.40;;;25.20;50.00;;;;;;5030288;28;20034;-82
2022/07/12 00:38:33;;;;;;;26.90;25.50;;;24.90;50.40;;;;;;5016072;28;20030;-82
2022/07/12 00:40:59;;;;;;;26.98;25.65;;;24.90;50.20;;;;;;5043045;28;20511;-83
2022/07/12 00:43:26;;;;;;;28.70;26.77;;;25.10;49.90;;;;;;5045752;28;20029;-83
2022/07/12 00:45:52;;;;;;;27.15;25.55;;;25.20;49.50;;;;;;5029971;28;20515;-83
2022/07/12 00:48:18;;;;;;;27.67;25.88;;;25.20;49.50;;;;;;5014162;28;20033;-82
2022/07/12 00:50:45;;;;;;;27.35;25.75;;;25.20;49.40;;;;;;5013129;28;20395;-83
2022/07/12 00:53:12;;;;;;;27.27;25.88;;;25.20;50.00;;;;;;5045595;28;20040;-82
2022/07/12 00:55:38;;;;;;;25.00;23.80;;;25.20;49.60;;;;;;5012241;28;20048;-82
2022/07/12 00:58:04;;;;;;;26.45;24.58;;;25.10;49.70;;;;;;5030248;28;20044;-83
2022/07/12 01:00:30;;;;;;;25.40;24.05;;;25.10;49.40;;;;;;5027831;28;20064;-83
2022/07/12 01:02:57;;;;;;;28.88;27.38;;;25.20;49.20;;;;;;5045734;28;20032;-83
2022/07/12 01:05:23;;;;;;;27.63;25.58;;;25.20;49.40;;;;;;5028918;28;20395;-83
2022/07/12 01:07:50;;;;;;;26.67;25.02;;;25.10;49.70;;;;;;5012150;28;20404;-81
2022/07/12 01:10:16;;;;;;;26.33;24.92;;;25.00;49.70;;;;;;5026026;28;20423;-82
2022/07/12 01:12:42;;;;;;;25.67;24.38;;;25.10;49.50;;;;;;5032311;28;20029;-83
2022/07/12 01:15:09;;;;;;;25.67;24.38;;;25.10;49.70;;;;;;5029369;28;20034;-81
2022/07/12 01:17:35;;;;;;;25.15;23.75;;;25.00;49.70;;;;;;5029335;28;20046;-82
2022/07/12 01:20:01;;;;;;;25.95;24.63;;;24.90;49.90;;;;;;5044565;28;20048;-82
2022/07/12 01:22:31;;;;;;;27.90;26.38;;;25.00;49.60;;;;;;5007555;28;20038;-83
2022/07/12 01:24:57;;;;;;;27.05;25.20;;;25.00;49.60;;;;;;5018780;28;20025;-82
2022/07/12 01:27:23;;;;;;;25.88;24.25;;;25.00;49.70;;;;;;5028669;28;20036;-83
2022/07/12 01:29:49;;;;;;;27.08;25.60;;;24.90;50.00;;;;;;5026210;28;20026;-82
2022/07/12 01:32:24;;;;;;;25.80;24.35;;;24.90;50.00;;;;;;5027945;28;20512;-82
2022/07/12 01:34:51;;;;;;;26.08;24.33;;;24.90;50.50;;;;;;5027893;28;20033;-82
2022/07/12 01:37:18;;;;;;;26.65;24.88;;;24.60;51.40;;;;;;5045024;28;20060;-82
2022/07/12 01:39:44;;;;;;;26.92;25.35;;;24.50;51.20;;;;;;5044926;28;20052;-82
2022/07/12 01:42:11;;;;;;;26.35;24.70;;;24.60;51.00;;;;;;5028215;28;20025;-82
2022/07/12 01:44:37;;;;;;;26.15;24.80;;;24.70;50.70;;;;;;5030458;28;20041;-83
2022/07/12 01:47:03;;;;;;;25.98;23.83;;;24.70;50.60;;;;;;5027674;28;20037;-83
2022/07/12 01:49:29;;;;;;;25.75;24.35;;;24.70;50.80;;;;;;5022896;28;20037;-82
2022/07/12 01:51:55;;;;;;;25.38;23.73;;;24.70;51.00;;;;;;5016512;28;20048;-82
2022/07/12 01:54:22;;;;;;;27.23;25.55;;;24.80;50.70;;;;;;5012512;28;20045;-83
2022/07/12 01:56:48;;;;;;;27.75;25.98;;;24.80;50.50;;;;;;5029034;28;20032;-82
2022/07/12 01:59:14;;;;;;;25.85;24.00;;;24.70;50.50;;;;;;5028154;28;20034;-82
2022/07/12 02:01:40;;;;;;;25.17;23.88;;;24.70;50.90;;;;;;5044068;28;20040;-82
2022/07/12 02:04:06;;;;;;;24.67;23.30;;;24.70;51.30;;;;;;5009600;28;20046;-83
2022/07/12 02:06:33;;;;;;;25.55;23.98;;;24.40;51.80;;;;;;5044345;28;20040;-83
2022/07/12 02:08:59;;;;;;;24.95;23.33;;;24.30;52.00;;;;;;4995972;28;20400;-83
2022/07/12 02:11:25;;;;;;;23.90;22.40;;;24.30;52.00;;;;;;5028728;28;20480;-83
2022/07/12 02:13:51;;;;;;;23.38;22.15;;;24.10;52.20;;;;;;5044491;28;20037;-83
2022/07/12 02:16:17;;;;;;;23.50;22.20;;;24.00;52.40;;;;;;5043959;28;20060;-83
2022/07/12 02:18:43;;;;;;;21.52;20.30;;;23.90;52.60;;;;;;5027287;28;20040;-83
2022/07/12 02:21:09;;;;;;;20.95;19.85;;;23.80;52.80;;;;;;5044491;28;20037;-83
2022/07/12 02:23:35;;;;;;;20.67;19.48;;;23.70;53.00;;;;;;5028646;28;20050;-83
2022/07/12 02:26:02;;;;;;;21.58;20.02;;;23.60;53.30;;;;;;5027898;28;20517;-83
2022/07/12 02:28:28;;;;;;;20.35;19.15;;;23.70;52.80;;;;;;5039921;28;20030;-83
2022/07/12 02:30:54;;;;;;;21.98;20.25;;;23.80;53.20;;;;;;5017423;28;20504;-83
2022/07/12 02:33:21;;;;;;;21.05;19.58;;;23.70;53.00;;;;;;5011953;28;20038;-83
2022/07/12 02:35:47;;;;;;;21.48;19.92;;;23.80;52.90;;;;;;5029559;28;20373;-83
2022/07/12 02:38:13;;;;;;;20.70;19.52;;;23.90;52.60;;;;;;5029009;28;20030;-83
2022/07/12 02:40:54;;;;;;;20.17;18.67;;;23.90;52.70;;;;;;5028831;28;20381;-83
2022/07/12 02:43:20;;;;;;;;;;;23.90;52.80;;;;;;5039698;28;20030;-83
2022/07/12 02:45:46;;;;;;;19.95;18.75;;;23.90;52.40;;;;;;5017734;28;19928;-83
2022/07/12 02:48:13;;;;;;;20.10;19.10;;;23.90;52.70;;;;;;5047892;28;20992;-83
2022/07/12 02:50:39;;;;;;;21.27;19.83;;;23.90;52.90;;;;;;5032249;28;20395;-83
2022/07/12 02:53:06;;;;;;;20.48;19.38;;;23.90;53.10;;;;;;5047491;28;20049;-83
2022/07/12 02:55:32;;;;;;;18.67;17.75;;;23.90;53.10;;;;;;5031228;28;20038;-82
2022/07/12 02:57:58;;;;;;;20.02;18.63;;;24.00;53.40;;;;;;5014571;28;20381;-83
2022/07/12 03:00:25;;;;;;;19.88;18.60;;;23.90;53.50;;;;;;5031525;28;20060;-83
2022/07/12 03:02:51;;;;;;;19.83;18.40;;;23.90;53.10;;;;;;5031918;28;20029;-82
2022/07/12 03:05:17;;;;;;;19.60;18.27;;;23.90;53.70;;;;;;5047651;28;20036;-82
2022/07/12 03:07:43;;;;;;;19.63;18.40;;;23.80;53.60;;;;;;5010128;28;20038;-83
2022/07/12 03:10:09;;;;;;;19.58;18.10;;;23.70;53.60;;;;;;5031999;28;20056;-82
2022/07/12 03:12:35;;;;;;;19.65;18.23;;;23.80;53.60;;;;;;5031093;28;20033;-83
2022/07/12 03:15:04;;;;;;;19.73;18.23;;;23.80;53.60;;;;;;5031509;28;20049;-82
2022/07/12 03:17:30;;;;;;;19.38;18.17;;;23.70;54.00;;;;;;5031538;28;20034;-82
2022/07/12 03:19:56;;;;;;;19.23;17.92;;;23.60;53.90;;;;;;5047194;28;20060;-83
2022/07/12 03:22:22;;;;;;;18.38;17.38;;;23.70;53.60;;;;;;5028197;28;20033;-82
2022/07/12 03:24:48;;;;;;;19.33;17.83;;;23.70;54.20;;;;;;5018144;28;20038;-82
2022/07/12 03:27:14;;;;;;;19.30;18.00;;;23.60;54.10;;;;;;5030847;28;20038;-83
2022/07/12 03:29:40;;;;;;;18.30;17.30;;;23.60;54.10;;;;;;5032301;28;20028;-83
2022/07/12 03:32:07;;;;;;;19.25;18.05;;;23.50;54.40;;;;;;5020058;28;20046;-82
2022/07/12 03:34:33;;;;;;;19.80;18.40;;;23.40;54.30;;;;;;5007967;28;20025;-82
2022/07/12 03:36:59;;;;;;;18.85;17.65;;;23.50;54.20;;;;;;5030272;28;20399;-82
2022/07/12 03:39:25;;;;;;;17.45;16.45;;;23.30;54.40;;;;;;5031910;28;20392;-82
2022/07/12 03:41:51;;;;;;;17.98;16.80;;;23.10;55.00;;;;;;5047848;28;20546;-82
2022/07/12 03:44:17;;;;;;;18.80;17.25;;;23.00;55.10;;;;;;5031173;28;20037;-82
2022/07/12 03:46:43;;;;;;;16.38;15.27;;;23.00;55.30;;;;;;5039989;28;20542;-83
2022/07/12 03:49:10;;;;;;;16.65;15.45;;;22.80;55.70;;;;;;5020311;28;20039;-82
2022/07/12 03:51:36;;;;;;;17.25;15.82;;;22.70;55.90;;;;;;5017361;28;20040;-82
2022/07/12 03:54:02;;;;;;;16.70;15.63;;;22.70;56.00;;;;;;5014128;28;20034;-82
2022/07/12 03:59:13;;;;;;;16.85;15.77;;;22.50;56.50;;;;;;5030508;28;20388;-82
2022/07/12 04:01:39;;;;;;;15.88;14.85;;;22.40;56.80;;;;;;5030527;28;20056;-82
2022/07/12 04:04:05;;;;;;;16.50;15.25;;;22.50;56.70;;;;;;5028249;28;20037;-82
2022/07/12 04:06:31;;;;;;;15.55;14.63;;;22.40;56.80;;;;;;5038188;28;20033;-83
2022/07/12 04:08:57;;;;;;;15.65;14.73;;;22.30;57.20;;;;;;5030042;28;20041;-82
2022/07/12 04:11:23;;;;;;;15.50;14.15;;;22.20;57.50;;;;;;5031535;28;20040;-83
2022/07/12 04:13:49;;;;;;;16.25;14.73;;;22.20;57.50;;;;;;5030493;28;20026;-82
2022/07/12 04:16:16;;;;;;;15.57;14.63;;;22.40;57.10;;;;;;5029059;28;20475;-82
2022/07/12 04:18:42;;;;;;;14.93;13.82;;;22.30;57.00;;;;;;5046311;28;20040;-82
2022/07/12 04:21:08;;;;;;;14.63;13.43;;;22.20;57.50;;;;;;5031112;28;20041;-82
2022/07/12 04:23:34;;;;;;;15.38;14.15;;;22.30;57.40;;;;;;5027922;28;20036;-82
2022/07/12 04:26:00;;;;;;;15.90;14.75;;;22.30;57.30;;;;;;5021891;28;20034;-83
2022/07/12 04:28:26;;;;;;;14.30;13.40;;;22.40;57.00;;;;;;5022033;28;20036;-83
2022/07/12 04:30:52;;;;;;;14.63;13.57;;;22.50;56.70;;;;;;5044820;28;20041;-82
2022/07/12 04:33:18;;;;;;;14.90;13.80;;;22.40;57.10;;;;;;5030917;28;20033;-82
2022/07/12 04:35:45;;;;;;;14.95;13.52;;;22.30;57.30;;;;;;5030032;28;20046;-83
2022/07/12 04:38:11;;;;;;;15.82;14.82;;;22.10;58.10;;;;;;5030546;28;20025;-83
2022/07/12 04:40:37;;;;;;;15.18;14.18;;;22.00;58.40;;;;;;5024759;28;20061;-82
2022/07/12 04:43:03;;;;;;;15.48;14.48;;;21.90;58.70;;;;;;5035270;28;20503;-83
2022/07/12 04:45:30;;;;;;;15.95;14.85;;;21.90;58.90;;;;;;5028839;28;20037;-83
2022/07/12 04:47:56;;;;;;;16.02;14.32;;;21.80;59.30;;;;;;5013465;28;20038;-82
2022/07/12 04:50:22;;;;;;;16.08;14.68;;;21.70;59.20;;;;;;5017470;28;20034;-82
2022/07/12 04:52:48;;;;;;;15.82;14.82;;;21.80;59.20;;;;;;5041449;28;20029;-82
2022/07/12 04:55:14;;;;;;;15.57;14.68;;;21.80;59.40;;;;;;5045609;28;20464;-83
2022/07/12 04:57:40;;;;;;;15.13;14.25;;;21.70;59.70;;;;;;5045292;28;20389;-82
2022/07/12 05:00:07;;;;;;;15.70;14.52;;;21.60;59.80;;;;;;5028689;28;20033;-82
2022/07/12 05:02:33;;;;;;;15.77;14.68;;;21.60;59.90;;;;;;5046047;28;20033;-82
2022/07/12 05:04:59;;;;;;;15.80;14.45;;;21.60;59.60;;;;;;5020021;28;20049;-82
2022/07/12 05:07:25;;;;;;;15.38;14.38;;;21.60;59.70;;;;;;5044476;28;20033;-82
2022/07/12 05:09:52;;;;;;;16.08;14.88;;;21.60;60.00;;;;;;5030028;28;20041;-82
2022/07/12 05:12:18;;;;;;;15.70;14.50;;;21.60;60.00;;;;;;5044821;28;20029;-82
2022/07/12 05:14:44;;;;;;;15.60;14.50;;;21.70;60.00;;;;;;5029669;28;20040;-83
2022/07/12 05:17:10;;;;;;;14.93;14.13;;;21.80;59.80;;;;;;5029537;28;20492;-82
2022/07/12 05:19:39;;;;;;;14.77;13.55;;;22.00;59.40;;;;;;5023262;28;20060;-83
2022/07/12 05:22:05;;;;;;;14.98;13.82;;;22.10;59.10;;;;;;4999876;28;20064;-83
2022/07/12 05:24:31;;;;;;;15.55;14.65;;;22.20;58.70;;;;;;5045040;28;20040;-83
2022/07/12 05:26:58;;;;;;;16.83;15.65;;;22.40;58.40;;;;;;5044977;28;20391;-83
2022/07/12 05:29:24;;;;;;;15.95;14.60;;;22.50;57.80;;;;;;5030337;28;20045;-83
2022/07/12 05:31:50;;;;;;;14.93;13.93;;;22.70;57.70;;;;;;5020292;28;20037;-83
2022/07/12 05:34:16;;;;;;;15.30;14.20;;;22.80;57.30;;;;;;5003318;28;20037;-83
2022/07/12 05:36:42;;;;;;;16.77;15.20;;;22.90;57.20;;;;;;5045019;28;20044;-83
2022/07/12 05:39:08;;;;;;;16.77;15.43;;;23.00;56.90;;;;;;5045119;28;20048;-83
2022/07/12 05:41:34;;;;;;;18.15;16.52;;;23.10;56.90;;;;;;5029654;28;20049;-84
2022/07/12 05:44:01;;;;;;;18.83;17.48;;;23.30;56.40;;;;;;5033595;28;20036;-83
2022/07/12 05:46:27;;;;;;;20.83;19.33;;;23.50;56.00;;;;;;5020726;28;20371;-84
2022/07/12 05:48:53;;;;;;;18.17;16.88;;;23.80;55.70;;;;;;5027861;28;20049;-84
2022/07/12 05:54:04;;;;;;;19.55;18.35;;;23.90;54.60;;;;;;5033329;28;20037;-84
2022/07/12 05:56:30;;;;;;;20.35;18.92;;;24.00;54.60;;;;;;5045167;28;20030;-84
2022/07/12 05:58:56;;;;;;;20.15;18.77;;;24.10;54.30;;;;;;5036653;28;20060;-83
2022/07/12 06:01:22;;;;;;;22.48;21.02;;;24.50;53.90;;;;;;5033073;28;20042;-84
2022/07/12 06:03:48;;;;;;;23.67;21.90;;;24.60;53.20;;;;;;5032623;28;20022;-84
2022/07/12 06:06:14;;;;;;;22.23;20.52;;;24.80;52.70;;;;;;5018719;28;20045;-85
2022/07/12 06:08:41;;;;;;;22.20;20.60;;;24.90;52.60;;;;;;5029208;28;20510;-84
2022/07/12 06:11:07;;;;;;;21.55;20.23;;;25.00;52.40;;;;;;5044588;28;20029;-84
2022/07/12 06:13:33;;;;;;;21.98;20.58;;;25.00;52.10;;;;;;5029298;28;20034;-85
2022/07/12 06:15:59;;;;;;;23.02;21.10;;;25.10;52.00;;;;;;5028884;28;20036;-85
2022/07/12 06:18:25;;;;;;;25.75;23.90;;;25.20;51.90;;;;;;5044707;28;20033;-85
2022/07/12 06:20:52;;;;;;;23.25;21.67;;;25.30;51.80;;;;;;5047488;28;20046;-85
2022/07/12 06:23:18;;;;;;;23.10;21.80;;;25.40;51.50;;;;;;5037036;28;20424;-84
2022/07/12 06:25:45;;;;;;;24.05;22.65;;;25.50;51.00;;;;;;5043413;28;20476;-85
2022/07/12 06:28:12;;;;;;;23.55;22.20;;;25.50;50.90;;;;;;5032967;28;20029;-84
2022/07/12 06:30:38;;;;;;;23.02;21.70;;;25.50;51.10;;;;;;5047810;28;20039;-84
2022/07/12 06:33:04;;;;;;;25.17;23.38;;;25.50;51.00;;;;;;5032961;28;20388;-84
2022/07/12 06:35:30;;;;;;;22.75;21.55;;;25.70;50.70;;;;;;5032243;28;20045;-84
2022/07/12 06:37:56;;;;;;;23.40;22.02;;;25.80;50.70;;;;;;5039648;28;20030;-84
2022/07/12 06:40:22;;;;;;;24.88;23.33;;;25.80;50.30;;;;;;5019846;28;20041;-85
2022/07/12 06:42:49;;;;;;;24.95;23.25;;;25.90;50.30;;;;;;5035699;28;20404;-85
2022/07/12 06:45:15;;;;;;;26.10;24.42;;;26.00;50.10;;;;;;4998752;28;20048;-84
2022/07/12 06:47:41;;;;;;;28.13;25.83;;;26.00;50.10;;;;;;5048810;28;20399;-85
2022/07/12 06:50:08;;;;;;;27.75;25.25;;;26.20;50.00;;;;;;5032652;28;20029;-84
2022/07/12 06:52:34;;;;;;;26.45;24.55;;;26.20;50.30;;;;;;5047482;28;20033;-85
2022/07/12 06:55:00;;;;;;;34.15;32.22;;;26.50;49.50;;;;;;5014689;28;20402;-85
2022/07/12 06:57:27;;;;;;;27.45;25.63;;;26.60;49.40;;;;;;5032599;28;20029;-85
2022/07/12 06:59:53;;;;;;;27.23;25.60;;;26.50;49.60;;;;;;5048792;28;20472;-85
2022/07/12 07:02:19;;;;;;;27.67;26.10;;;26.60;50.00;;;;;;5035717;28;20519;-85
2022/07/12 07:04:45;;;;;;;29.67;27.77;;;26.70;49.20;;;;;;5027673;28;20018;-85
2022/07/12 07:07:12;;;;;;;28.55;26.98;;;26.70;49.70;;;;;;5047163;28;20495;-85
2022/07/12 07:09:38;;;;;;;29.60;28.00;;;26.60;49.40;;;;;;5047548;28;20060;-85
2022/07/12 07:12:05;;;;;;;28.88;27.27;;;26.60;49.70;;;;;;5032259;28;20029;-85
2022/07/12 07:14:31;;;;;;;30.73;28.88;;;26.50;50.00;;;;;;5032933;28;20033;-85
2022/07/12 07:16:57;;;;;;;32.10;29.92;;;26.50;49.70;;;;;;5023555;28;20038;-85
2022/07/12 07:19:25;;;;;;;28.27;26.67;;;26.60;50.40;;;;;;5002839;28;20034;-85
2022/07/12 07:21:55;;;;;;;26.85;25.30;;;26.80;49.50;;;;;;5019634;28;20053;-85
2022/07/12 07:24:22;;;;;;;28.50;26.80;;;26.90;49.10;;;;;;5031020;28;20403;-85
2022/07/12 07:26:48;;;;;;;28.92;27.15;;;26.90;48.70;;;;;;5031585;28;20032;-85
2022/07/12 07:31:59;;;;;;;27.90;26.10;;;27.10;48.90;;;;;;5045057;28;20048;-85
2022/07/12 07:34:26;;;;;;;31.23;29.52;;;27.20;48.50;;;;;;5031713;28;20048;-85
2022/07/12 07:36:52;;;;;;;28.80;27.20;;;27.20;48.50;;;;;;5031600;28;20502;-85
2022/07/12 07:39:18;;;;;;;28.83;27.13;;;27.30;47.90;;;;;;5030600;28;20026;-85
2022/07/12 07:41:45;;;;;;;32.30;30.48;;;27.50;47.90;;;;;;5032850;28;20034;-85
2022/07/12 07:44:11;;;;;;;30.10;28.30;;;27.60;47.90;;;;;;5030517;28;20036;-84
2022/07/12 07:46:37;;;;;;;32.35;30.38;;;27.70;47.20;;;;;;5031302;28;20029;-85
2022/07/12 07:49:03;;;;;;;33.45;31.65;;;27.80;47.10;;;;;;5047026;28;20033;-85
2022/07/12 07:51:29;;;;;;;33.65;31.95;;;27.90;46.50;;;;;;5031178;28;20029;-84
2022/07/12 07:53:55;;;;;;;43.90;41.42;;;28.00;46.40;;;;;;5047256;28;20022;-85
2022/07/12 07:56:21;;;;;;;32.53;30.73;;;28.00;46.00;;;;;;5019026;28;20296;-84
2022/07/12 07:58:47;;;;;;;35.38;33.33;;;27.90;46.50;;;;;;5035204;28;20049;-84
2022/07/12 08:01:14;;;;;;;67.60;63.95;;;28.10;46.50;;;;;;5020688;28;20089;-85
2022/07/12 08:03:40;;;;;;;36.92;34.92;;;28.30;45.70;;;;;;5030007;28;20384;-85
2022/07/12 08:06:06;;;;;;;36.72;34.63;;;28.30;45.90;;;;;;5031075;28;20045;-86
2022/07/12 08:08:32;;;;;;;43.40;41.13;;;28.30;45.40;;;;;;5046804;28;20045;-85
2022/07/12 08:10:58;;;;;;;38.03;36.03;;;28.30;45.60;;;;;;5046398;28;20472;-85
2022/07/12 08:13:24;;;;;;;44.15;41.75;;;28.20;45.30;;;;;;5046206;28;20029;-86
2022/07/12 08:15:50;;;;;;;43.65;41.05;;;28.30;44.90;;;;;;5046045;28;20033;-85
2022/07/12 08:18:16;;;;;;;45.17;42.65;;;28.60;45.60;;;;;;5047106;28;20034;-84
2022/07/12 08:20:42;;;;;;;45.35;42.53;;;28.80;44.70;;;;;;5015734;28;20032;-85
2022/07/12 08:23:09;;;;;;;50.08;47.30;;;29.00;43.70;;;;;;5028354;28;20480;-86
2022/07/12 08:25:35;;;;;;;50.25;47.40;;;29.00;44.20;;;;;;5029613;28;20034;-86
2022/07/12 08:28:01;;;;;;;50.03;47.53;;;29.20;44.20;;;;;;5029083;28;20044;-85
2022/07/12 08:30:27;;;;;;;48.85;46.15;;;29.40;43.70;;;;;;5028837;28;20037;-85
2022/07/12 08:32:55;;;;;;;49.33;46.83;;;29.60;43.20;;;;;;5030401;28;20037;-85
2022/07/12 08:35:21;;;;;;;51.17;48.50;;;29.50;43.30;;;;;;5013007;28;20048;-86
2022/07/12 08:37:47;;;;;;;51.65;48.65;;;29.60;43.50;;;;;;5030416;28;20412;-85
2022/07/12 08:40:13;;;;;;;49.45;46.65;;;29.80;42.80;;;;;;5045755;28;20029;-85
2022/07/12 08:42:42;;;;;;;48.20;45.88;;;29.90;42.60;;;;;;5030068;28;20428;-86
2022/07/12 08:45:09;;;;;;;49.95;47.55;;;29.80;42.10;;;;;;5029984;28;20029;-85
2022/07/12 08:47:36;;;;;;;48.70;45.67;;;29.80;42.70;;;;;;5014270;28;20037;-85
2022/07/12 08:50:18;;;;;;;47.17;44.85;;;30.10;42.50;;;;;;5027834;28;20026;-86
2022/07/12 08:52:48;;;;;;;55.33;52.55;;;30.10;42.20;;;;;;5045719;28;20464;-86
2022/07/12 08:55:34;;;;;;;50.50;47.55;;;30.30;42.00;;;;;;5029009;28;20034;-85
2022/07/12 08:58:06;;;;;;;54.78;51.85;;;30.20;42.40;;;;;;5028729;28;20038;-86
2022/07/12 09:00:32;;;;;;;56.83;53.83;;;30.50;42.50;;;;;;5013962;28;20033;-86
2022/07/12 09:03:00;;;;;;;56.05;53.25;;;30.80;42.00;;;;;;5028742;28;20041;-86
2022/07/12 09:05:30;;;;;;;1999.90;999.90;;;31.00;41.20;;;;;;5029268;28;20036;-86
2022/07/12 09:08:04;;;;;;;54.83;51.40;;;31.10;41.40;;;;;;5008668;28;20029;-86
2022/07/12 09:10:30;;;;;;;57.10;54.20;;;31.00;40.70;;;;;;5029890;28;20048;-86
2022/07/12 09:12:56;;;;;;;1999.90;999.90;;;31.00;39.70;;;;;;5045437;28;20026;-85
2022/07/12 09:15:23;;;;;;;54.03;51.22;;;31.00;40.00;;;;;;5013687;28;20048;-86
2022/07/12 09:18:12;;;;;;;1999.90;999.90;;;31.00;40.10;;;;;;5029167;28;20033;-86
2022/07/12 09:20:39;;;;;;;54.72;51.95;;;31.20;39.90;;;;;;5014166;28;20029;-86
2022/07/12 09:23:07;;;;;;;1999.90;999.90;;;31.20;39.60;;;;;;5043221;28;20065;-86
2022/07/12 09:25:33;;;;;;;1515.45;764.65;;;31.10;39.00;;;;;;5028317;28;20025;-86
2022/07/12 09:28:02;;;;;;;58.00;54.63;;;31.10;39.20;;;;;;5027961;28;20369;-86
2022/07/12 09:30:28;;;;;;;49.05;46.63;;;31.20;39.30;;;;;;5011405;28;20792;-86
2022/07/12 09:36:07;;;;;;;1999.90;999.90;;;31.20;37.90;;;;;;5045257;28;20476;-86
2022/07/12 09:38:35;;;;;;;1999.90;999.90;;;31.30;38.30;;;;;;5030387;28;20041;-86
2022/07/12 09:41:01;;;;;;;1999.90;999.90;;;31.50;38.20;;;;;;5044620;28;20032;-86
2022/07/12 09:43:27;;;;;;;1999.90;999.90;;;31.60;38.20;;;;;;5028524;28;20040;-85
2022/07/12 09:45:53;;;;;;;1999.90;999.90;;;31.70;37.40;;;;;;5027595;28;20045;-86
2022/07/12 09:48:20;;;;;;;1999.90;999.90;;;31.80;37.30;;;;;;5044658;28;20037;-86
2022/07/12 09:50:50;;;;;;;1999.90;999.90;;;31.70;37.80;;;;;;5045497;28;20064;-87
2022/07/12 09:53:21;;;;;;;1999.90;999.90;;;31.90;37.90;;;;;;5018246;28;20516;-86
2022/07/12 09:55:51;;;;;;;;;;;32.00;37.40;;;;;;5042855;28;20045;-85
2022/07/12 09:58:38;;;;;;;1999.90;999.90;;;32.10;37.10;;;;;;5032179;28;19916;-87
2022/07/12 10:01:05;;;;;;;1999.90;999.90;;;32.20;37.60;;;;;;5031560;28;20048;-86
2022/07/12 10:03:33;;;;;;;1999.90;999.90;;;32.30;37.10;;;;;;5032484;28;20033;-86
2022/07/12 10:06:01;;;;;;;1999.90;999.90;;;32.20;36.80;;;;;;5032499;28;20029;-86
2022/07/12 10:08:27;;;;;;;1999.90;999.90;;;32.10;36.90;;;;;;5033401;28;20049;-86
2022/07/12 10:10:53;;;;;;;1999.90;999.90;;;32.20;36.70;;;;;;5048661;28;20495;-86
2022/07/12 10:13:20;;;;;;;1999.90;999.90;;;32.40;36.20;;;;;;5033820;28;20032;-87
2022/07/12 10:15:49;;;;;;;1999.90;999.90;;;32.60;35.30;;;;;;5047612;28;20502;-86
2022/07/12 10:18:19;;;;;;;1999.90;999.90;;;32.50;33.70;;;;;;5016438;28;20021;-86
2022/07/12 10:20:47;;;;;;;54.38;51.58;;;32.40;34.30;;;;;;5032916;28;20463;-86
2022/07/12 10:23:36;;;;;;;1999.90;999.90;;;32.40;34.50;;;;;;5048225;28;20515;-86
2022/07/12 10:26:26;;;;;;;1999.90;999.90;;;32.50;34.10;;;;;;5033283;28;20038;-86
2022/07/12 10:29:03;;;;;;;1999.90;999.90;;;32.60;34.80;;;;;;5024018;28;20041;-87
2022/07/12 10:31:32;;;;;;;1999.90;999.90;;;32.80;34.20;;;;;;5019619;28;20034;-87
2022/07/12 10:34:08;;;;;;;1999.90;999.90;;;32.70;34.60;;;;;;5020985;28;20029;-87
2022/07/12 10:36:58;;;;;;;1999.90;999.90;;;32.80;34.20;;;;;;5029869;28;20029;-87
2022/07/12 10:39:25;;;;;;;1999.90;999.90;;;33.10;34.40;;;;;;5011805;28;20052;-87
2022/07/12 10:42:06;;;;;;;1999.90;999.90;;;33.40;33.10;;;;;;5032378;28;20044;-87
2022/07/12 10:44:40;;;;;;;1999.90;999.90;;;33.30;32.70;;;;;;5033195;28;20041;-87
2022/07/12 10:47:07;;;;;;;1999.90;999.90;;;33.20;32.40;;;;;;5047532;28;20428;-86
2022/07/12 10:49:34;;;;;;;1999.90;999.90;;;33.30;32.30;;;;;;5048099;28;20028;-87
2022/07/12 10:52:16;;;;;;;1999.90;999.90;;;33.50;32.10;;;;;;5031393;28;20392;-87
2022/07/12 10:55:02;;;;;;;1999.90;999.90;;;33.40;30.90;;;;;;5031204;28;20396;-86
2022/07/12 10:57:45;;;;;;;1999.90;999.90;;;33.30;30.70;;;;;;5010710;28;20523;-86
2022/07/12 11:00:13;;;;;;;1999.90;999.90;;;33.30;31.40;;;;;;5013122;28;20049;-86
2022/07/12 11:02:40;;;;;;;1999.90;999.90;;;33.30;31.30;;;;;;5031892;28;20037;-86
2022/07/12 11:05:06;;;;;;;1999.90;999.90;;;33.50;30.70;;;;;;5046875;28;20033;-86
2022/07/12 11:07:32;;;;;;;1999.90;999.90;;;33.40;28.60;;;;;;5047315;28;20399;-87
2022/07/12 11:09:58;;;;;;;1999.90;999.90;;;33.40;30.10;;;;;;5047257;28;20061;-86
2022/07/12 11:12:31;;;;;;;1999.90;999.90;;;33.50;31.50;;;;;;5016724;28;20044;-86
2022/07/12 11:15:00;;;;;;;1999.90;999.90;;;33.60;31.80;;;;;;5031075;28;20049;-86
2022/07/12 11:17:30;;;;;;;1999.90;999.90;;;33.40;32.10;;;;;;5031336;28;20029;-86
2022/07/12 11:20:27;;;;;;;1999.90;999.90;;;33.20;30.90;;;;;;5032214;28;20036;-86
2022/07/12 11:22:53;;;;;;;1999.90;999.90;;;33.30;31.40;;;;;;5013564;28;20044;-86
2022/07/12 11:25:19;;;;;;;1999.90;999.90;;;33.40;31.70;;;;;;5030886;28;20029;-86
2022/07/12 11:27:45;;;;;;;1999.90;999.90;;;33.40;31.70;;;;;;5030442;28;20451;-86
2022/07/12 11:30:13;;;;;;;1999.90;999.90;;;33.40;32.10;;;;;;5046800;28;20036;-87
2022/07/12 11:32:41;;;;;;;1025.00;523.80;;;33.30;31.80;;;;;;5031538;28;20025;-86
2022/07/12 11:35:25;;;;;;;1999.90;999.90;;;33.20;31.30;;;;;;5009024;28;20478;-86
2022/07/12 11:37:54;;;;;;;1999.90;999.90;;;33.30;31.30;;;;;;5026924;28;20041;-86
2022/07/12 11:40:25;;;;;;;1999.90;999.90;;;33.50;31.20;;;;;;5046599;28;20077;-86
2022/07/12 11:42:55;;;;;;;1999.90;999.90;;;33.80;31.10;;;;;;5031372;28;20037;-85
2022/07/12 11:45:22;;;;;;;1999.90;999.90;;;34.00;30.40;;;;;;5014347;28;20343;-86
2022/07/12 11:47:48;;;;;;;1999.90;999.90;;;34.00;30.50;;;;;;5031113;28;20036;-86
2022/07/12 11:50:17;;;;;;;1999.90;999.90;;;34.10;30.70;;;;;;5019341;28;20053;-86
2022/07/12 11:52:43;;;;;;;1999.90;999.90;;;34.30;29.60;;;;;;5035392;28;20480;-87
2022/07/12 11:55:09;;;;;;;1999.90;999.90;;;34.30;29.70;;;;;;5020773;28;20037;-86
2022/07/12 11:57:35;;;;;;;1999.90;999.90;;;34.50;28.80;;;;;;5046636;28;20030;-86
2022/07/12 12:00:18;;;;;;;1999.90;999.90;;;34.30;29.30;;;;;;5014240;28;20034;-86
2022/07/12 12:02:44;;;;;;;1999.90;999.90;;;34.20;29.40;;;;;;4994711;28;20445;-86
2022/07/12 12:05:11;;;;;;;1999.90;999.90;;;34.20;29.40;;;;;;5014897;28;20034;-86
2022/07/12 12:07:37;;;;;;;1999.90;999.90;;;34.40;29.10;;;;;;5014573;28;20465;-86
2022/07/12 12:10:04;;;;;;;1999.90;999.90;;;34.50;28.60;;;;;;5011612;28;20049;-86
2022/07/12 12:12:38;;;;;;;1999.90;999.90;;;34.60;28.70;;;;;;5010826;28;20046;-86
2022/07/12 12:15:08;;;;;;;1999.90;999.90;;;34.60;28.20;;;;;;4996455;28;20469;-86
2022/07/12 12:17:35;;;;;;;1999.90;999.90;;;34.70;27.70;;;;;;5015797;28;20496;-86
2022/07/12 12:20:28;;;;;;;1999.90;999.90;;;34.90;27.30;;;;;;5018220;28;20037;-86
2022/07/12 12:22:55;;;;;;;1999.90;999.90;;;34.70;28.00;;;;;;5024045;28;20053;-85
2022/07/12 12:25:22;;;;;;;1999.90;999.90;;;34.80;28.00;;;;;;5038897;28;20044;-87
2022/07/12 12:27:49;;;;;;;1999.90;999.90;;;34.80;28.00;;;;;;5028988;28;20037;-86
2022/07/12 12:30:17;;;;;;;1999.90;999.90;;;34.90;28.10;;;;;;5012989;28;20041;-86
2022/07/12 12:32:47;;;;;;;1999.90;999.90;;;35.10;27.90;;;;;;5015801;28;20037;-86
2022/07/12 12:35:15;;;;;;;1999.90;999.90;;;35.30;28.20;;;;;;5045239;28;20034;-87